Time;durP1;ratioP1;P1;durP2;ratioP2;P2;SDS_P1;SDS_P2;PMS_P1;PMS_P2;Temp;Humidity;BMP_temperature;BMP_pressure;BME280_temperature;BME280_humidity;BME280_pressure;Samples;Min_cycle;Max_cycle;Signal;HPM_P1;HPM_P2
2021/12/29 00:00:44;;;;;;;11.43;6.47;;;;;;;-3.68;57.57;99192.33;1778311;80;21025;-42
2021/12/29 00:03:11;;;;;;;9.18;6.45;;;;;;;-3.72;58.01;99193.91;1778267;80;21128;-42
2021/12/29 00:05:38;;;;;;;12.93;6.67;;;;;;;-3.74;58.13;99194.20;1778458;80;21515;-43
2021/12/29 00:08:05;;;;;;;10.78;6.35;;;;;;;-3.83;58.42;99188.41;1778348;80;20965;-43
2021/12/29 00:10:33;;;;;;;11.75;6.33;;;;;;;-3.85;58.77;99194.48;1778125;80;21657;-42
2021/12/29 00:13:04;;;;;;;9.33;5.40;;;;;;;-3.89;59.04;99194.23;1778317;80;21001;-43
2021/12/29 00:15:30;;;;;;;8.98;5.75;;;;;;;-3.87;58.97;99184.70;1778296;80;20969;-43
2021/12/29 00:17:57;;;;;;;14.18;5.92;;;;;;;-3.92;59.09;99186.81;1778285;80;20937;-42
2021/12/29 00:20:29;;;;;;;7.97;5.20;;;;;;;-3.90;59.26;99181.26;1778290;80;21605;-43
2021/12/29 00:22:59;;;;;;;9.35;5.78;;;;;;;-3.93;59.16;99181.80;1778485;80;21065;-42
2021/12/29 00:25:26;;;;;;;10.20;5.72;;;;;;;-3.94;59.13;99177.03;1777860;80;21111;-42
2021/12/29 00:27:55;;;;;;;9.55;5.78;;;;;;;-3.98;59.25;99174.14;1778696;80;21552;-43
2021/12/29 00:30:23;;;;;;;8.95;5.95;;;;;;;-4.06;59.57;99175.20;1781451;80;20972;-43
2021/12/29 00:32:58;;;;;;;8.70;5.58;;;;;;;-4.08;59.63;99170.72;1781418;80;20981;-43
2021/12/29 00:35:29;;;;;;;7.28;5.20;;;;;;;-4.15;59.92;99163.05;1723802;80;21000;-42
2021/12/29 00:38:15;;;;;;;8.93;5.50;;;;;;;-4.17;59.99;99162.54;1781382;80;21048;-42
2021/12/29 00:40:47;;;;;;;10.08;5.78;;;;;;;-4.19;60.00;99161.20;1772025;80;21949;-43
2021/12/29 00:43:27;;;;;;;9.73;5.50;;;;;;;-4.22;60.24;99161.75;1766356;80;21012;-43
2021/12/29 00:46:02;;;;;;;11.35;5.62;;;;;;;-4.23;60.21;99155.66;1734767;80;20921;-43
2021/12/29 00:48:35;;;;;;;9.58;5.42;;;;;;;-4.26;60.25;99145.59;1781395;80;21763;-42
2021/12/29 00:50:57;;;;;;;9.88;5.08;;;;;;;-4.29;60.50;99144.81;1781346;80;21463;-42
2021/12/29 00:53:24;;;;;;;10.78;5.55;;;;;;;-4.24;60.58;99132.09;1781189;80;21140;-42
2021/12/29 00:55:50;;;;;;;9.13;5.15;;;;;;;-4.21;60.55;99140.29;1781100;80;20929;-43
2021/12/29 00:58:17;;;;;;;7.72;5.12;;;;;;;-4.17;60.52;99134.75;1781273;80;21538;-42
2021/12/29 01:00:43;;;;;;;9.10;5.15;;;;;;;-4.20;60.41;99131.81;1781363;80;21080;-43
2021/12/29 01:03:10;;;;;;;9.10;5.10;;;;;;;-4.19;60.26;99125.47;1781245;80;21037;-42
2021/12/29 01:05:37;;;;;;;10.55;5.15;;;;;;;-4.17;60.18;99123.36;1781411;80;21120;-43
2021/12/29 01:08:05;;;;;;;9.40;5.87;;;;;;;-4.20;60.33;99119.38;1776267;80;20977;-42
2021/12/29 01:10:32;;;;;;;9.63;5.00;;;;;;;-4.17;60.44;99122.83;1781355;80;21546;-43
2021/12/29 01:13:01;;;;;;;9.38;5.30;;;;;;;-4.09;60.52;99118.30;1781356;80;21045;-43
2021/12/29 01:15:34;;;;;;;8.20;5.42;;;;;;;-4.08;60.32;99110.63;1781348;80;21616;-43
2021/12/29 01:18:03;;;;;;;9.63;5.40;;;;;;;-4.07;60.38;99112.75;1781604;80;21102;-43
2021/12/29 01:20:31;;;;;;;8.23;5.15;;;;;;;-4.08;60.45;99115.92;1781224;80;20918;-43
2021/12/29 01:22:59;;;;;;;9.88;4.95;;;;;;;-4.03;60.48;99115.91;1781548;80;21076;-42
2021/12/29 01:25:28;;;;;;;8.43;5.53;;;;;;;-3.97;60.38;99109.51;1781239;80;21009;-42
2021/12/29 01:27:55;;;;;;;9.18;4.83;;;;;;;-4.02;60.39;99116.14;1781416;80;21020;-42
2021/12/29 01:30:22;;;;;;;10.05;5.12;;;;;;;-3.95;60.34;99117.19;1778196;80;21769;-42
2021/12/29 01:32:50;;;;;;;8.15;5.05;;;;;;;-4.03;60.29;99111.94;1778183;80;21020;-42
2021/12/29 01:35:17;;;;;;;10.13;5.40;;;;;;;-4.06;60.39;99111.66;1778288;80;21047;-43
2021/12/29 01:37:43;;;;;;;11.90;5.70;;;;;;;-4.05;60.57;99118.02;1778545;80;20997;-43
2021/12/29 01:40:14;;;;;;;11.15;5.70;;;;;;;-4.05;60.66;99116.70;1778267;80;21088;-43
2021/12/29 01:44:32;;;;;;;8.65;5.10;;;;;;;-4.09;60.61;99105.59;1831079;78;22582;-41
2021/12/29 01:46:59;;;;;;;9.55;5.10;;;;;;;-4.20;61.03;99110.12;1803175;79;20881;-41
2021/12/29 01:49:25;;;;;;;8.45;4.85;;;;;;;-4.18;61.10;99104.56;1802901;79;21114;-41
2021/12/29 01:52:02;;;;;;;8.88;5.50;;;;;;;-4.11;60.88;99100.55;1803064;79;20994;-41
2021/12/29 01:54:23;;;;;;;8.48;5.30;;;;;;;-4.06;60.79;99099.75;1800886;79;20940;-41
2021/12/29 01:56:53;;;;;;;;;;;;;;;-4.00;60.61;99094.70;1805603;79;21537;-41
2021/12/29 01:59:20;;;;;;;7.80;4.92;;;;;;;-3.98;60.46;99085.44;1802861;79;20464;-41
2021/12/29 02:01:46;;;;;;;10.53;5.47;;;;;;;-4.03;60.79;99092.08;1803057;79;21108;-41
2021/12/29 02:04:13;;;;;;;9.03;5.30;;;;;;;-3.95;60.82;99088.06;1802786;79;20892;-41
2021/12/29 02:06:41;;;;;;;9.68;5.55;;;;;;;-3.96;60.64;99087.27;1803134;79;20971;-41
2021/12/29 02:09:08;;;;;;;10.70;6.00;;;;;;;-3.93;60.72;99090.45;1799194;79;20987;-42
2021/12/29 02:11:37;;;;;;;10.38;5.60;;;;;;;-3.96;60.65;99088.59;1784151;80;21004;-41
2021/12/29 02:14:06;;;;;;;8.28;5.25;;;;;;;-4.04;60.66;99083.88;1778729;80;21198;-41
2021/12/29 02:16:33;;;;;;;9.28;5.37;;;;;;;-4.03;60.80;99078.84;1784442;80;21035;-41
2021/12/29 02:19:04;;;;;;;10.63;5.80;;;;;;;-3.99;61.06;99077.23;1784234;80;20979;-41
2021/12/29 02:21:32;;;;;;;9.00;5.20;;;;;;;-3.92;60.93;99073.51;1784106;80;20991;-41
2021/12/29 02:26:28;;;;;;;8.88;5.37;;;;;;;-3.86;60.43;99066.58;1784237;80;21585;-41
2021/12/29 02:28:55;;;;;;;8.53;5.03;;;;;;;-3.86;60.31;99068.42;1784334;80;20992;-41
2021/12/29 02:31:24;;;;;;;9.25;5.30;;;;;;;-3.88;60.42;99063.95;1784214;80;21034;-41
2021/12/29 02:33:54;;;;;;;9.80;5.50;;;;;;;-3.82;60.34;99070.78;1783635;80;21126;-41
2021/12/29 02:36:21;;;;;;;8.83;5.28;;;;;;;-3.81;60.45;99067.08;1784399;80;21023;-41
2021/12/29 02:38:52;;;;;;;9.53;5.45;;;;;;;-3.75;60.36;99062.82;1784177;80;21054;-41
2021/12/29 02:41:16;;;;;;;8.73;5.47;;;;;;;-3.67;60.12;99063.56;1783673;80;20967;-41
2021/12/29 02:43:44;;;;;;;10.88;5.87;;;;;;;-3.66;59.88;99065.16;1778566;80;20987;-41
2021/12/29 02:46:14;;;;;;;11.15;5.53;;;;;;;-3.61;59.65;99057.17;1773899;80;21609;-41
2021/12/29 02:48:54;;;;;;;9.35;5.85;;;;;;;-3.63;59.57;99053.23;1774019;80;21031;-41
2021/12/29 02:51:17;;;;;;;9.83;5.53;;;;;;;-3.65;59.50;99057.47;1773007;80;21141;-41
2021/12/29 02:53:43;;;;;;;7.37;5.05;;;;;;;-3.68;59.51;99051.38;1773845;80;21072;-41
2021/12/29 02:56:10;;;;;;;8.60;4.97;;;;;;;-3.67;59.56;99060.12;1773212;79;21029;-41
2021/12/29 02:58:37;;;;;;;9.28;5.55;;;;;;;-3.66;59.47;99069.66;1734097;82;21299;-41
2021/12/29 03:01:08;;;;;;;10.68;5.87;;;;;;;-3.59;59.39;99071.48;1770949;81;21029;-41
2021/12/29 03:03:38;;;;;;;8.38;5.45;;;;;;;-3.63;59.22;99069.13;1770949;81;21472;-41
2021/12/29 03:06:06;;;;;;;9.75;5.72;;;;;;;-3.66;59.54;99078.92;1771138;81;21492;-41
2021/12/29 03:08:34;;;;;;;8.03;4.45;;;;;;;-3.61;59.56;99066.98;1771190;81;21014;-41
2021/12/29 03:11:00;;;;;;;8.03;5.30;;;;;;;-3.60;59.43;99065.92;1764035;81;21508;-41
2021/12/29 03:13:29;;;;;;;8.78;5.10;;;;;;;-3.57;59.27;99062.71;1803071;79;21017;-41
2021/12/29 03:15:58;;;;;;;7.72;5.67;;;;;;;-3.60;59.44;99065.92;1802635;79;20914;-41
2021/12/29 03:18:25;;;;;;;10.78;5.97;;;;;;;-3.56;59.49;99062.97;1802420;79;20982;-41
2021/12/29 03:20:52;;;;;;;7.92;5.05;;;;;;;-3.54;59.40;99063.51;1764467;81;20957;-41
2021/12/29 03:23:19;;;;;;;10.53;5.22;;;;;;;-3.53;58.89;99058.44;1764440;81;21093;-41
2021/12/29 03:25:48;;;;;;;8.40;5.12;;;;;;;-3.61;59.05;99051.08;1764193;81;20999;-41
2021/12/29 03:28:16;;;;;;;8.48;5.17;;;;;;;-3.70;59.29;99047.43;1802968;79;21772;-41
2021/12/29 03:30:46;;;;;;;7.20;4.60;;;;;;;-3.71;59.63;99051.14;1802709;79;20934;-41
2021/12/29 03:33:12;;;;;;;7.45;5.00;;;;;;;-3.74;59.60;99055.14;1790669;79;21001;-41
2021/12/29 03:35:42;;;;;;;8.95;5.10;;;;;;;-3.71;59.68;99051.93;1746891;81;20946;-41
2021/12/29 03:38:12;;;;;;;;;;;;;;;-3.66;59.57;99055.09;1805672;79;21010;-41
2021/12/29 03:40:38;;;;;;;5.50;3.70;;;;;;;-3.64;59.63;99056.94;1802609;79;21111;-41
2021/12/29 03:43:06;;;;;;;8.88;4.92;;;;;;;-3.69;59.73;99066.23;1801865;79;21064;-41
2021/12/29 03:45:33;;;;;;;10.98;4.60;;;;;;;-3.66;59.58;99065.16;1748833;82;21562;-41
2021/12/29 03:47:59;;;;;;;7.30;4.72;;;;;;;-3.64;59.42;99053.77;1805847;79;20941;-41
2021/12/29 03:50:27;;;;;;;8.00;4.97;;;;;;;-3.67;59.30;99060.91;1812932;79;21000;-41
2021/12/29 03:52:54;;;;;;;8.53;5.20;;;;;;;-3.74;59.45;99059.64;1809117;79;21772;-41
2021/12/29 03:55:20;;;;;;;9.35;5.15;;;;;;;-3.71;59.59;99063.06;1781042;80;21044;-41
2021/12/29 03:57:47;;;;;;;6.87;4.78;;;;;;;-3.73;59.42;99063.35;1781277;80;20921;-41
2021/12/29 04:00:16;;;;;;;7.35;4.72;;;;;;;-3.75;59.49;99062.02;1782227;79;20973;-40
2021/12/29 04:02:43;;;;;;;9.25;4.95;;;;;;;-3.74;59.69;99049.84;1813463;79;21048;-41
2021/12/29 04:05:12;;;;;;;6.85;4.50;;;;;;;-3.65;59.59;99054.02;1812977;79;21976;-41
2021/12/29 04:07:39;;;;;;;;;;;;;;;-3.68;59.32;99056.67;1815999;79;21040;-41
2021/12/29 04:10:08;;;;;;;7.70;4.70;;;;;;;-3.72;59.68;99054.31;1812980;78;20166;-41
2021/12/29 04:12:39;;;;;;;9.20;4.75;;;;;;;-3.77;59.89;99046.92;1813113;79;21019;-41
2021/12/29 04:15:08;;;;;;;7.53;4.78;;;;;;;-3.70;59.76;99050.08;1813273;79;21040;-41
2021/12/29 04:17:38;;;;;;;8.00;5.00;;;;;;;-3.64;59.66;99048.99;1813393;79;21709;-41
2021/12/29 04:22:54;;;;;;;8.40;4.80;;;;;;;-3.66;59.78;99046.61;1813640;79;20121;-41
2021/12/29 04:25:24;;;;;;;7.67;4.80;;;;;;;-3.76;59.93;99042.69;1812870;79;20992;-41
2021/12/29 04:27:52;;;;;;;8.50;5.25;;;;;;;-3.75;59.92;99040.30;1813232;79;21020;-41
2021/12/29 04:30:20;;;;;;;9.20;5.62;;;;;;;-3.73;59.82;99040.84;1812985;79;21101;-41
2021/12/29 04:32:47;;;;;;;6.17;4.50;;;;;;;-3.74;59.86;99035.27;1813223;79;21064;-41
2021/12/29 04:35:14;;;;;;;7.50;4.70;;;;;;;-3.66;59.83;99037.87;1813089;79;21009;-41
2021/12/29 04:37:41;;;;;;;7.17;4.80;;;;;;;-3.62;59.56;99032.27;1813087;79;21036;-41
2021/12/29 04:40:09;;;;;;;7.60;4.60;;;;;;;-3.67;59.82;99033.09;1813028;79;21021;-41
2021/12/29 04:42:36;;;;;;;9.65;5.20;;;;;;;-3.68;59.69;99038.13;1813450;79;21719;-41
2021/12/29 04:45:05;;;;;;;6.65;4.67;;;;;;;-3.72;59.68;99034.98;1805753;79;20989;-41
2021/12/29 04:47:32;;;;;;;10.32;5.25;;;;;;;-3.74;59.64;99041.10;1804798;79;21039;-41
2021/12/29 04:50:00;;;;;;;8.15;4.80;;;;;;;-3.77;59.79;99046.39;1804604;79;20937;-41
2021/12/29 04:52:29;;;;;;;8.25;5.10;;;;;;;-3.76;59.75;99041.89;1804916;79;21539;-41
2021/12/29 04:54:56;;;;;;;7.40;4.78;;;;;;;-3.72;59.64;99049.55;1804510;79;21794;-41
2021/12/29 04:57:23;;;;;;;10.98;5.12;;;;;;;-3.73;59.78;99046.66;1804333;79;20953;-41
2021/12/29 04:59:50;;;;;;;6.95;4.37;;;;;;;-3.68;59.82;99039.45;1798989;79;20947;-41
2021/12/29 05:02:16;;;;;;;8.08;5.10;;;;;;;-3.68;59.73;99042.66;1804313;79;20937;-41
2021/12/29 05:04:55;;;;;;;8.13;4.72;;;;;;;-3.68;59.56;99037.37;1804691;79;21037;-41
2021/12/29 05:10:00;;;;;;;7.03;5.00;;;;;;;-3.73;59.63;99042.16;1799338;79;20886;-41
2021/12/29 05:12:27;;;;;;;7.62;4.87;;;;;;;-3.74;59.64;99039.78;1804434;79;21618;-41
2021/12/29 05:14:54;;;;;;;9.28;5.20;;;;;;;-3.72;59.61;99035.77;1804530;79;21064;-41
2021/12/29 05:17:21;;;;;;;7.58;4.85;;;;;;;-3.72;59.42;99033.66;1804433;79;20989;-41
2021/12/29 05:19:47;;;;;;;6.58;4.47;;;;;;;-3.76;59.45;99040.57;1804575;79;21151;-41
2021/12/29 05:22:15;;;;;;;9.15;5.65;;;;;;;-3.78;59.53;99041.39;1804426;79;21496;-41
2021/12/29 05:24:42;;;;;;;7.47;5.03;;;;;;;-3.76;59.51;99042.69;1799388;79;21240;-41
2021/12/29 05:27:09;;;;;;;8.93;5.00;;;;;;;-3.83;59.77;99037.45;1804383;79;21075;-41
2021/12/29 05:29:36;;;;;;;8.58;4.78;;;;;;;-3.77;59.79;99045.60;1789983;79;21021;-42
2021/12/29 05:32:04;;;;;;;7.80;4.67;;;;;;;-3.78;59.68;99053.31;1766681;81;21809;-41
2021/12/29 05:34:31;;;;;;;7.20;4.78;;;;;;;-3.81;59.75;99057.81;1771928;79;21448;-41
2021/12/29 05:36:57;;;;;;;11.05;5.58;;;;;;;-3.84;59.78;99059.16;1804599;79;21001;-41
2021/12/29 05:39:24;;;;;;;10.25;5.33;;;;;;;-3.87;59.76;99053.06;1804408;79;20921;-41
2021/12/29 05:41:51;;;;;;;7.90;5.20;;;;;;;-3.86;59.92;99053.33;1804538;79;20965;-41
2021/12/29 05:44:18;;;;;;;11.05;5.45;;;;;;;-3.83;60.08;99045.39;1804300;79;21801;-41
2021/12/29 05:46:45;;;;;;;10.08;5.53;;;;;;;-3.78;59.98;99042.72;1804441;79;20922;-41
2021/12/29 05:49:11;;;;;;;9.20;5.20;;;;;;;-3.78;59.91;99044.05;1799859;79;22093;-41
2021/12/29 05:51:38;;;;;;;8.30;5.25;;;;;;;-3.78;59.83;99045.36;1804497;79;21421;-41
2021/12/29 05:54:05;;;;;;;10.38;5.85;;;;;;;-3.85;59.69;99042.21;1804633;79;21056;-41
2021/12/29 05:56:32;;;;;;;9.58;5.65;;;;;;;-3.93;59.94;99046.77;1804463;79;22078;-41
2021/12/29 05:59:01;;;;;;;8.18;5.35;;;;;;;-3.97;60.09;99049.94;1804557;79;21480;-41
2021/12/29 06:01:28;;;;;;;7.85;5.15;;;;;;;-4.03;60.35;99047.60;1804794;79;21000;-41
2021/12/29 06:03:55;;;;;;;8.35;5.28;;;;;;;-4.04;60.39;99045.48;1804473;79;20974;-41
2021/12/29 06:06:22;;;;;;;10.25;5.17;;;;;;;-4.09;60.54;99046.83;1804649;79;21535;-41
2021/12/29 06:08:48;;;;;;;9.93;5.28;;;;;;;-4.08;60.51;99051.06;1804543;79;21828;-41
2021/12/29 06:11:14;;;;;;;8.95;5.42;;;;;;;-4.09;60.72;99045.50;1804668;79;21539;-41
2021/12/29 06:13:42;;;;;;;8.23;4.92;;;;;;;-4.06;60.99;99041.50;1804411;79;20925;-41
2021/12/29 06:16:09;;;;;;;7.35;4.78;;;;;;;-3.97;60.73;99042.55;1804961;79;20969;-41
2021/12/29 06:18:36;;;;;;;9.65;4.95;;;;;;;-3.91;60.60;99049.91;1804491;79;21522;-42
2021/12/29 06:21:03;;;;;;;9.28;5.35;;;;;;;-3.79;60.59;99047.75;1804494;79;21889;-41
2021/12/29 06:23:29;;;;;;;7.45;4.80;;;;;;;-3.73;60.05;99038.72;1804480;79;21032;-41
2021/12/29 06:25:56;;;;;;;11.50;5.03;;;;;;;-3.71;59.86;99047.96;1804370;79;21037;-41
2021/12/29 06:28:23;;;;;;;7.60;5.20;;;;;;;-3.76;59.75;99048.52;1804434;79;21558;-41
2021/12/29 06:30:50;;;;;;;10.25;6.37;;;;;;;-3.77;59.67;99044.28;1804879;79;21064;-41
2021/12/29 06:33:17;;;;;;;6.72;4.83;;;;;;;-3.78;59.70;99055.96;1804415;79;21130;-41
2021/12/29 06:35:43;;;;;;;10.05;5.12;;;;;;;-3.78;60.09;99045.36;1804621;79;21023;-42
2021/12/29 06:38:10;;;;;;;9.75;5.62;;;;;;;-3.72;59.98;99053.52;1804507;79;21075;-41
2021/12/29 06:40:37;;;;;;;8.68;5.45;;;;;;;-3.69;60.12;99049.02;1804725;79;21586;-41
2021/12/29 06:43:04;;;;;;;9.80;5.60;;;;;;;-3.64;60.23;99049.78;1804699;79;21001;-41
2021/12/29 06:45:30;;;;;;;8.28;5.08;;;;;;;-3.57;60.11;99050.26;1804387;79;21213;-41
2021/12/29 06:47:57;;;;;;;9.83;6.03;;;;;;;-3.46;59.86;99055.50;1804556;79;20918;-41
2021/12/29 06:50:24;;;;;;;7.67;5.60;;;;;;;-3.42;59.79;99058.64;1804730;79;21091;-41
2021/12/29 06:52:50;;;;;;;9.93;5.62;;;;;;;-3.38;59.49;99057.55;1804672;79;21000;-41
2021/12/29 06:55:17;;;;;;;8.75;5.60;;;;;;;-3.35;59.50;99053.05;1804991;79;20978;-42
2021/12/29 06:57:44;;;;;;;10.18;5.83;;;;;;;-3.35;59.44;99051.19;1804691;79;21143;-41
2021/12/29 07:00:12;;;;;;;9.08;5.92;;;;;;;-3.31;59.51;99054.87;1804721;79;21036;-41
2021/12/29 07:02:38;;;;;;;8.08;5.25;;;;;;;-3.27;59.36;99055.10;1804660;79;20960;-41
2021/12/29 07:05:06;;;;;;;9.73;6.22;;;;;;;-3.22;59.22;99055.86;1804984;79;21037;-41
2021/12/29 07:07:33;;;;;;;8.53;5.58;;;;;;;-3.22;59.07;99051.88;1804650;79;21013;-41
2021/12/29 07:09:59;;;;;;;10.58;6.25;;;;;;;-3.22;59.13;99053.73;1805022;79;21045;-41
2021/12/29 07:12:25;;;;;;;9.65;5.97;;;;;;;-3.18;59.02;99046.81;1804438;79;20942;-41
2021/12/29 07:14:52;;;;;;;10.05;5.67;;;;;;;-3.17;59.08;99047.87;1804789;79;21515;-41
2021/12/29 07:17:18;;;;;;;10.15;5.62;;;;;;;-3.10;59.06;99047.56;1804623;79;21562;-41
2021/12/29 07:19:45;;;;;;;8.23;5.65;;;;;;;-3.05;59.00;99051.50;1804870;79;21491;-41
2021/12/29 07:22:11;;;;;;;8.15;5.62;;;;;;;-3.01;58.78;99050.41;1804621;79;21244;-41
2021/12/29 07:24:38;;;;;;;8.98;5.83;;;;;;;-3.02;58.69;99049.61;1804398;79;20957;-41
2021/12/29 07:27:05;;;;;;;12.10;5.58;;;;;;;-3.02;58.60;99054.12;1804666;79;20883;-41
2021/12/29 07:29:32;;;;;;;8.05;5.60;;;;;;;-3.00;58.66;99054.08;1804581;79;21072;-41
2021/12/29 07:31:58;;;;;;;9.78;6.05;;;;;;;-2.97;58.40;99064.16;1804765;79;21519;-41
2021/12/29 07:34:25;;;;;;;9.40;5.85;;;;;;;-2.91;58.23;99062.25;1804948;79;21769;-42
2021/12/29 07:36:52;;;;;;;10.48;5.97;;;;;;;-2.92;58.37;99060.66;1804451;79;20945;-41
2021/12/29 07:39:18;;;;;;;8.28;5.72;;;;;;;-2.87;58.14;99066.72;1804803;79;20953;-41
2021/12/29 07:41:46;;;;;;;9.63;6.05;;;;;;;-2.83;58.16;99063.77;1804603;79;20980;-41
2021/12/29 07:44:17;;;;;;;9.23;5.87;;;;;;;-2.80;58.00;99057.09;1804899;79;21085;-41
2021/12/29 07:46:45;;;;;;;11.43;5.95;;;;;;;-2.80;58.02;99054.44;1804728;79;21134;-41
2021/12/29 07:49:12;;;;;;;10.15;6.15;;;;;;;-2.79;58.03;99047.55;1804435;79;20937;-41
2021/12/29 07:51:41;;;;;;;9.38;6.15;;;;;;;-2.75;58.04;99051.75;1804660;79;21550;-41
2021/12/29 07:54:08;;;;;;;10.05;6.65;;;;;;;-2.75;58.10;99054.40;1804919;79;20977;-41
2021/12/29 07:56:35;;;;;;;10.05;6.65;;;;;;;-2.74;58.17;99057.31;1804556;79;20982;-41
2021/12/29 07:59:01;;;;;;;8.48;5.83;;;;;;;-2.69;58.24;99059.92;1804884;79;21158;-41
2021/12/29 08:01:28;;;;;;;10.72;6.28;;;;;;;-2.60;58.10;99063.55;1804556;79;21775;-42
2021/12/29 08:03:55;;;;;;;10.32;5.92;;;;;;;-2.57;57.98;99064.33;1804535;79;20941;-42
2021/12/29 08:06:21;;;;;;;10.08;6.45;;;;;;;-2.49;57.80;99061.59;1804645;79;21107;-42
2021/12/29 08:08:48;;;;;;;8.88;6.60;;;;;;;-2.53;57.41;99061.37;1805168;79;21035;-41
2021/12/29 08:11:16;;;;;;;9.85;6.65;;;;;;;-2.54;57.85;99057.13;1804305;79;21950;-41
2021/12/29 08:13:43;;;;;;;12.68;7.10;;;;;;;-2.43;57.90;99062.59;1804763;79;20992;-41
2021/12/29 08:16:09;;;;;;;10.78;5.95;;;;;;;-2.34;57.76;99061.44;1804590;79;21025;-40
2021/12/29 08:18:37;;;;;;;8.65;5.70;;;;;;;-2.29;57.33;99067.48;1804594;79;22069;-41
2021/12/29 08:21:04;;;;;;;10.55;6.30;;;;;;;-2.29;57.37;99067.48;1804589;79;21013;-41
2021/12/29 08:23:31;;;;;;;10.30;6.75;;;;;;;-2.24;57.46;99062.13;1804801;79;21022;-41
2021/12/29 08:25:59;;;;;;;10.63;6.70;;;;;;;-2.20;57.28;99059.15;1804439;79;21021;-41
2021/12/29 08:28:26;;;;;;;8.75;6.47;;;;;;;-2.18;57.06;99056.22;1804830;79;21471;-41
2021/12/29 08:30:54;;;;;;;11.18;6.53;;;;;;;-2.23;57.04;99057.60;1804622;79;21009;-41
2021/12/29 08:33:21;;;;;;;12.75;6.55;;;;;;;-2.19;56.82;99061.27;1805099;79;21033;-41
2021/12/29 08:35:48;;;;;;;13.83;6.40;;;;;;;-2.27;56.97;99051.25;1799435;79;21532;-41
2021/12/29 08:38:16;;;;;;;10.63;6.55;;;;;;;-2.30;57.00;99053.95;1799408;79;21559;-41
2021/12/29 08:40:43;;;;;;;9.90;6.47;;;;;;;-2.37;57.15;99056.13;1804394;79;21025;-42
2021/12/29 08:43:11;;;;;;;11.28;6.80;;;;;;;-2.41;57.22;99059.11;1804395;79;20952;-42
2021/12/29 08:45:38;;;;;;;11.18;6.83;;;;;;;-2.41;57.42;99059.11;1800105;79;21002;-41
2021/12/29 08:48:06;;;;;;;13.93;6.97;;;;;;;-2.37;57.46;99058.79;1797244;79;21974;-41
2021/12/29 08:50:32;;;;;;;11.15;6.67;;;;;;;-2.35;57.45;99061.97;1797156;79;21053;-41
2021/12/29 08:53:02;;;;;;;13.30;7.65;;;;;;;-2.35;57.67;99056.66;1797473;79;20985;-41
2021/12/29 08:55:30;;;;;;;10.08;7.15;;;;;;;-2.24;57.47;99050.17;1797089;79;20985;-41
2021/12/29 08:57:57;;;;;;;12.33;7.58;;;;;;;-2.14;57.43;99052.45;1797311;79;21491;-41
2021/12/29 09:00:23;;;;;;;11.03;7.12;;;;;;;-2.07;57.22;99039.60;1797269;79;21806;-41
2021/12/29 09:02:50;;;;;;;12.65;8.05;;;;;;;-2.04;57.29;99041.71;1797226;79;20976;-42
2021/12/29 09:05:17;;;;;;;11.65;7.78;;;;;;;-1.93;57.18;99037.30;1797200;79;20965;-41
2021/12/29 09:07:46;;;;;;;13.70;8.63;;;;;;;-1.86;57.03;99036.42;1797232;79;21016;-42
2021/12/29 09:10:15;;;;;;;14.87;8.60;;;;;;;-1.77;56.65;99031.25;1797387;79;21005;-42
2021/12/29 09:12:42;;;;;;;13.43;7.92;;;;;;;-1.78;56.56;99030.46;1797570;79;22161;-41
2021/12/29 09:15:10;;;;;;;13.60;8.68;;;;;;;-1.74;56.64;99029.34;1796972;79;21057;-41
2021/12/29 09:17:36;;;;;;;15.15;8.50;;;;;;;-1.65;56.42;99028.98;1797703;79;21465;-41
2021/12/29 09:20:13;;;;;;;17.12;8.90;;;;;;;-1.57;56.22;99038.16;1797085;79;21005;-41
2021/12/29 09:22:34;;;;;;;17.48;9.18;;;;;;;-1.56;56.12;99031.77;1797405;79;21076;-41
2021/12/29 09:25:01;;;;;;;14.73;9.53;;;;;;;-1.59;55.38;99039.77;1797154;79;21142;-41
2021/12/29 09:27:27;;;;;;;16.15;8.70;;;;;;;-1.69;55.86;99043.89;1797419;79;20997;-41
2021/12/29 09:29:55;;;;;;;15.55;9.35;;;;;;;-1.73;56.26;99046.88;1797039;79;21515;-41
2021/12/29 09:32:23;;;;;;;15.85;9.40;;;;;;;-1.65;56.38;99050.23;1797134;79;20954;-41
2021/12/29 09:34:51;;;;;;;17.37;9.13;;;;;;;-1.61;56.24;99052.57;1797374;79;21025;-42
2021/12/29 09:37:18;;;;;;;16.90;9.23;;;;;;;-1.53;56.10;99047.13;1795804;78;21125;-42
2021/12/29 09:39:44;;;;;;;16.82;10.20;;;;;;;-1.50;55.86;99050.00;1783096;80;21031;-41
2021/12/29 09:42:11;;;;;;;17.87;10.18;;;;;;;-1.45;55.85;99049.93;1783301;80;21472;-42
2021/12/29 09:44:38;;;;;;;15.85;9.40;;;;;;;-1.42;55.50;99055.22;1783107;79;20894;-41
2021/12/29 09:47:08;;;;;;;14.65;9.70;;;;;;;-1.37;55.61;99049.30;1783295;79;21063;-41
2021/12/29 09:49:34;;;;;;;17.00;8.88;;;;;;;-1.33;55.84;99056.15;1783263;80;21134;-42
2021/12/29 09:52:01;;;;;;;17.45;10.03;;;;;;;-1.28;55.51;99053.95;1783365;80;21090;-42
2021/12/29 09:54:28;;;;;;;18.57;10.23;;;;;;;-1.28;55.27;99055.28;1783093;80;20971;-41
2021/12/29 09:56:55;;;;;;;17.15;9.65;;;;;;;-1.29;55.39;99049.17;1783146;80;21554;-42
2021/12/29 09:59:21;;;;;;;16.23;10.10;;;;;;;-1.26;55.23;99051.80;1783415;80;20976;-42
2021/12/29 10:01:49;;;;;;;15.30;10.03;;;;;;;-1.35;54.79;99049.78;1783353;80;21114;-41
2021/12/29 10:04:16;;;;;;;16.55;9.30;;;;;;;-1.46;55.21;99045.71;1783025;80;21023;-41
2021/12/29 10:06:43;;;;;;;14.78;10.08;;;;;;;-1.48;55.51;99048.39;1783214;80;21003;-41
2021/12/29 10:09:13;;;;;;;15.28;9.88;;;;;;;-1.41;55.54;99045.64;1779453;79;21565;-41
2021/12/29 10:11:40;;;;;;;16.15;9.98;;;;;;;-1.33;55.57;99042.85;1765944;81;21030;-42
2021/12/29 10:14:12;;;;;;;18.77;10.18;;;;;;;-1.24;55.31;99045.64;1766097;81;21762;-41
2021/12/29 10:16:39;;;;;;;14.63;9.93;;;;;;;-1.20;55.41;99048.77;1765873;81;21017;-42
2021/12/29 10:19:10;;;;;;;17.10;10.60;;;;;;;-1.14;55.19;99046.28;1765952;80;21593;-42
2021/12/29 10:21:44;;;;;;;18.80;10.70;;;;;;;-1.12;55.19;99044.67;1765846;81;20984;-42
2021/12/29 10:24:12;;;;;;;16.85;9.98;;;;;;;-1.06;55.09;99049.60;1765118;81;21081;-42
2021/12/29 10:26:44;;;;;;;17.98;9.08;;;;;;;-1.02;54.87;99049.83;1760345;81;21786;-41
2021/12/29 10:29:17;;;;;;;17.02;9.13;;;;;;;-0.99;55.12;99050.57;1765924;81;20973;-42
2021/12/29 10:31:51;;;;;;;18.82;10.72;;;;;;;-0.94;54.98;99049.16;1765379;81;21000;-42
2021/12/29 10:34:22;;;;;;;16.60;10.23;;;;;;;-0.88;54.89;99049.33;1765661;81;20957;-42
2021/12/29 10:36:56;;;;;;;17.48;9.98;;;;;;;-0.80;54.75;99049.98;1766051;81;21033;-42
2021/12/29 10:39:42;;;;;;;16.12;10.08;;;;;;;-0.76;54.59;99045.65;1766301;81;21073;-41
2021/12/29 10:42:18;;;;;;;15.80;10.15;;;;;;;-0.75;54.92;99043.24;1765710;81;21025;-42
2021/12/29 10:44:53;;;;;;;14.93;9.58;;;;;;;-0.71;54.41;99033.58;1765850;81;21005;-42
2021/12/29 10:47:31;;;;;;;20.82;11.05;;;;;;;-0.70;54.58;99036.50;1765674;81;20973;-42
2021/12/29 10:50:02;;;;;;;17.17;10.32;;;;;;;-0.63;54.35;99036.12;1765728;81;21037;-42
2021/12/29 10:52:39;;;;;;;15.90;10.35;;;;;;;-0.59;54.37;99042.44;1765799;81;21742;-42
2021/12/29 10:55:20;;;;;;;15.72;10.23;;;;;;;-0.51;54.14;99042.55;1765726;81;21029;-42
2021/12/29 10:58:08;;;;;;;16.35;10.20;;;;;;;-0.48;54.04;99041.95;1765659;81;21440;-42
2021/12/29 11:00:37;;;;;;;18.80;10.72;;;;;;;-0.39;53.95;99034.63;1764718;81;21061;-42
2021/12/29 11:03:13;;;;;;;13.90;8.35;;;;;;;-0.38;53.70;99034.84;1766098;81;21021;-43
2021/12/29 11:05:42;;;;;;;18.55;10.13;;;;;;;-0.37;53.40;99038.56;1765798;81;21114;-43
2021/12/29 11:08:10;;;;;;;;;;;;;;;-0.34;53.42;99031.87;1768420;81;20941;-43
2021/12/29 11:10:39;;;;;;;16.57;10.43;;;;;;;-0.32;52.99;99039.00;1792282;79;20174;-43
2021/12/29 11:13:07;;;;;;;19.60;10.82;;;;;;;-0.52;53.16;99031.64;1749079;82;21033;-43
2021/12/29 11:15:41;;;;;;;18.37;11.15;;;;;;;-0.61;53.56;99033.95;1797312;79;21559;-43
2021/12/29 11:18:12;;;;;;;17.32;11.00;;;;;;;-0.64;53.41;99037.20;1748763;82;21126;-43
2021/12/29 11:20:40;;;;;;;17.07;10.70;;;;;;;-0.65;53.74;99033.75;1797289;79;20969;-43
2021/12/29 11:23:20;;;;;;;16.07;10.43;;;;;;;-0.65;53.79;99036.41;1797450;79;21115;-42
2021/12/29 11:25:47;;;;;;;15.68;10.80;;;;;;;-0.61;53.81;99032.08;1743995;82;20938;-43
2021/12/29 11:28:30;;;;;;;20.72;11.48;;;;;;;-0.55;53.67;99034.91;1797028;79;21080;-43
2021/12/29 11:31:00;;;;;;;18.27;11.35;;;;;;;-0.51;53.68;99041.75;1748943;82;21126;-42
2021/12/29 11:33:33;;;;;;;15.93;10.80;;;;;;;-0.54;53.69;99042.35;1797000;79;20914;-43
2021/12/29 11:36:02;;;;;;;18.30;10.60;;;;;;;-0.53;53.82;99046.03;1797396;79;21013;-43
2021/12/29 11:38:31;;;;;;;16.93;10.98;;;;;;;-0.50;53.74;99053.98;1797150;79;20967;-43
2021/12/29 11:41:00;;;;;;;14.20;10.60;;;;;;;-0.47;53.65;99054.72;1748716;82;21028;-43
2021/12/29 11:43:26;;;;;;;13.80;9.03;;;;;;;-0.41;53.10;99047.44;1783067;80;21135;-43